Disclaimer   
PNR Super Search
 ♦ 
×
HashTag:
PNR Number:
Train Type:
Train:
From Station:
To Station:
Train Class:
2SSLCCEx3AFC2A1A3E
WL Quota:
DOJ From:
DOJ To:
Blogger:
Traveller:
Predictor:
Prediction:
WLRACConf
Stamper:
Final:
WLRACConfVoidQ-ConfUnStamped
Status:
Reaction:

Search
  Go  
 
Thu Apr 2, 2015 02:50:55 ISTHomeTrainsΣChainsAtlasPNRForumGalleryNewsFAQTripsMembersLoginFeedback
Thu Apr 2, 2015 02:50:55 IST
Post PNRPNR StatusModify Search

Ticket PNR Status Inquiry - PNR: 213-xxxxxxx (E-Ticket)

OLD STATUS

Status Last Updated on: Jul 15 2012 (4:19PM) IST

Date of Journey: Sun Aug 05, 2012   Class: AC 3-tier - 3A   (Total Seats available for this Class/Quota: Avbl >18)
Passenger 1: Confirmed (Booking Status: B1,40,GN)
Chart NOT Prepared

Amritsar - Mumbai LTT (Pathankot) Express/11058

Travel Time: 22h 28m    47 halts    Distance: 1125 km    Avg Speed: 50 km/hr
Peak Observed Speed: n/a
Type: Mail/Express
Zone: CR/Central
Departs @ 20:50
Platform# 4
SMTWTFS
NDLS/New Delhi 
Arrives @ 19:18 +1 night
Platform# 2
SMTWTFS
JL/Jalgaon Junction 

47 halts. 156 intermediate Stations between New Delhi and Jalgaon Junction

Show ALL intermediate Stations  Show Old Time-Table

#TrkCodeStation NameX/OArrivesAvgDepartsAvgHaltPFDay#KmSpeedElevZoneAddress
1/==/ASRAmritsar Junction  -08:30-41-502.977233mNRAmritsar 143002, Punjab
2/==/JNLJandialaX  08:45-08:47-2m21-483.768238mNRJandiala, Punjab
3/==/BEASBeas JunctionX  09:08-09:10-2m21-459.961238mNRBeas, Punjab
4/==/KREKartarpurX  09:31-09:33-2m11-438.473236mNRKartarpur, Punjab
5/==/JUCJalandhar City JunctionX  09:45-09:55-10m21-423.818239mNRJalandhar 144001, Punjab
6/==/JRCJalandhar Cantt. JunctionX  10:11-10:13-2m21-418.970239mNRNear Rama Mandi, Punjab
7/==/PGWPhagwara JunctionX  10:27-10:29-2m11-402.654245mNRPhagwara, Punjab
8/==/GRYGoraya  10:40-10:42-2m11-392.864240mNRGoraya, Punjab
9/==/PHRPhillaur Junction  10:54-10:56-2m11-380.133246mNRPhillaur, Punjab
10/==/LDHLudhiana Junction  11:20-11:30-10m41-367.029246mNRLudhiana 141001, Punjab
11|--|AHHAhmadgarh  12:23-12:25-2m11-341.679256mNRAhmedgarh, Punjab
12|--|METMalerkotlaX  12:40-12:42-2m21-321.753248mNRMalerkotla., Punjab
13|--|DUIDhuri Junction  13:01-13:04-3m--1-304.973248mNRDhuri, Punjab
14|--|NBANabha  13:26-13:28-2m11-278.070250mNRNabha, Punjab
15|--|PTAPatialaX  13:50-13:53-3m11-252.137256mNRPatiala, Punjab
16|--|RPJRajpura JunctionOO  14:33-14:35-2m21-227.359272mNRNH-1., Punjab
17/==/UBCAmbala CityXO  14:56-14:58-2m11-206.821273mNRNH-1, Haryana
18/==/UMBAmbala Cantt. JunctionXO15:20-15:55-35m11-199.285278mNRAmbala 133001, Haryana
19/==/SHDMShahbad Markanda  16:09-16:11-2m11-179.378267mNRShahabad Markanda, Haryana
20/==/KKDEKurukshetra JunctionX  16:28-16:30-2m21-157.160260mNRKurukshetra, Haryana
21/==/NLKRNilokheriX  16:47-16:49-2m--1-140.134254mNRNilokheri, Haryana
22/==/TRRTaraoriX  16:56-16:58-2m21-136.140255mNRTaraori, Haryana
23/==/KUNKarnal  17:16-17:18-2m11-124.066253mNRKarnal, Haryana
24/==/GRAGharaunda  17:34-17:36-2m11-106.656244mNRGharaunda, Haryana
25/==/PNPPanipat JunctionX  17:54-17:56-2m21-89.660235mNRPanipat, Haryana
26/==/SMKSamalkha  18:13-18:15-2m11-72.657229mNRSamalkha, Haryana
27/==/GNUGanaur  18:28-18:30-2m--1-60.460222mNRGanaur, Haryana
28/==/SNPSonipat  18:46-18:48-2m11-44.548225mNRSonipat, Haryana
29/==/RDDERathdhanaX  19:01-19:03-2m--1-34.050223mNRSonipat, Haryana
30/==/NURNarela  19:11-19:13-2m--1-27.459222mNRNarela, Delhi NCT
31/==/ANDIAdarsh Nagar  19:30-19:32-2m11-10.721214mNRShalimar Bagh, Delhi NCT
32/==/SZMDelhi Sabzi Mandi  19:51-19:53-2m31-4.19220mNRGulabi Bagh, Delhi NCT
33/==/NDLSNew Delhi»X  20:20-20:50-30m410.034215mNRNew Delhi 110002, Delhi NCT
34/==/NZMDelhi Hazrat NizamuddinX  21:03-21:05-2m417.457209mNRNew Delhi 110013, Delhi NCT
35/==/FDBFaridabadX  21:27-21:29-2m3128.237206mNRold Faridabad, Haryana
36/==/BVHBallabgarhO  21:42-21:44-2m--136.229203mNRFaridabad, Haryana
37/==/PWLPalwal  22:28-22:30-2m--157.485200mNRPalwal, Haryana
38/==/KSVKosi Kalan  23:00-23:02-2m2199.975189mNCRKosi Kalan, Uttar Pradesh
39/==/MTJMathura Junction  23:35-23:40-5m11141.356179mNCRMathura, Uttar Pradesh
40/==/RKMRaja Ki MandiX  00:33-00:35-2m22191.012170mNCRAgra, Uttar Pradesh
41/==/AGCAgra Cantt.X  00:55-01:03-8m12195.079174mNCRAgra, Uttar Pradesh
42/==/DHODholpur JunctionXO  01:43-01:45-2m22247.673177mNCRDholpur, Rajasthan
43/==/MRAMorenaX  02:07-02:09-2m12274.556176mNCRMorena, Madhya Pradesh
44/==/GWLGwalior JunctionX  02:50-02:58-8m12313.073214mNCRGwalior, Madhya Pradesh
45/==/DBADabraX  03:33-03:35-2m22355.349207mNCRDabra(District-Gwalior), Madhya Pradesh
46/==/SORSonagirX  03:58-04:00-2m--2374.246211mNCRDatia, Madhya Pradesh
47/==/DAADatiaX  04:15-04:17-2m22385.746264mNCRDatia, Madhya Pradesh
48/==/JHSJhansi JunctionX  04:50-05:00-10m52410.761259mNCRJhansi, Uttar Pradesh
49/==/BABBabinaX  05:25-05:27-2m12436.252285mNCRBabina, Uttar Pradesh
50/==/BZYBasai  05:41-05:43-2m12448.351287mNCR07522289600, Madhya Pradesh
51/==/TBTTalbahatX  05:58-06:00-2m12461.252314mNCRKhaniyadhana Station Rd, Madhya Pradesh
52/==/LARLalitpurX  06:46-06:48-2m22501.177373mNCRLalitpur, Uttar Pradesh
53/==/JLNJakhalaunXO  07:01-07:03-2m22517.899394mNCRLalitpur(05176-272220), Uttar Pradesh
54/==/DUADhauraXO  07:10-07:12-2m--2529.420407mNCRDhaura Tanda, Madhya Pradesh
55/==/BINABina JunctionX  08:55-09:00-5m32564.069414mWCRJunction point -KATNI/GUNA/ BPL/JHS District Saugor, Madhya Pradesh
56/==/MABAMandi BamoraX  09:15-09:17-2m22581.278413mWCRState Highway 14 District Vidisha, Madhya Pradesh
57/==/BAQGanj BasodaX  09:39-09:41-2m22609.769415mWCRDistrict Vidisha, Madhya Pradesh
58/==/GLGGulabGanjX  09:57-09:59-2m--2628.074433mWCRVidisha, Madhya Pradesh
59/==/BHSVidishaX  10:16-10:18-2m22649.056433mWCRVidisha, Madhya Pradesh
60/==/SCISanchiX  10:28-10:30-2m--2658.466428mWCRRaisen, Madhya Pradesh
61/==/BPLBhopal JunctionX  11:10-11:15-5m12702.538497mWCRBhopal, Madhya Pradesh
62/==/HBJBhopal HabibGanj  11:25-11:27-2m42708.864496mWCRHabibGanj, Madhya Pradesh
63/==/MDDPMandi Dip  11:42-11:44-2m12724.962455mWCRHoshangabad Road Mandideep District Raisen, Madhya Pradesh
64/==/ODGObaidulla Ganj  11:57-11:59-2m12738.454448mWCRObaidullaganj Raisen Dist., Madhya Pradesh
65/==/BNIBudniX  12:33-12:35-2m12769.246311mWCRDistrict Sehore 466445, Madhya Pradesh
66/==/HBDHoshangabadX  12:44-12:46-2m22776.232308mWCRHoshangabad, Madhya Pradesh
67/==/ETItarsi Junction  13:20-13:25-5m22794.384329mWCRItarsi 461111, Madhya Pradesh